Terminal Aerodrome Forecast
Issued by NWS

Home | Current Version | Previous Version | Text Only | Print | Product List | Glossary On
Versions: 1 2 3 4 5 6 7 8 9 10 11 12 13 14 15 16 17 18 19
000
FTUS43 KGRB 201300 AAA
TAFAUW
TAF AMD
KAUW 201348Z 2014/2112 18004KT 5SM BR SCT006 OVC010
      TEMPO 2014/2016 2SM -FZDZSN BR OVC004
     FM201900 15005KT P6SM OVC020
     FM210100 15004KT 4SM BR SCT008 OVC012
      TEMPO 2108/2112 OVC006=

USA.gov is the U.S. government's official web portal to all federal, state and local government web resources and services.